Terminal Aerodrome Forecast
Issued by NWS

Home | Current Version | Previous Version | Graphics & Text | Print | Product List | Glossary On
Versions: 1 2 3 4 5 6 7 8 9 10 11 12 13 14 15 16 17 18 19 20 21 22 23
000
FTUS43 KMPX 192300
TAFAXN
TAF
KAXN 192326Z 2000/2024 VRB03KT P6SM SCT100 BKN200
     FM200600 17008KT P6SM SCT070 BKN200
     FM201400 18017G23KT P6SM SCT060 BKN150=

USA.gov is the U.S. government's official web portal to all federal, state and local government web resources and services.